KR-0403 weather

53rd ROK Army Division 125th Regiment Heliport
Busan (Yeoung-do), Busan Gwang'yeogsi, South Korea

Public forecast

Using degrees Celsius for public forecast. Weather courtesy of forecast.io.

Closest aviation weather report (METAR) to 53rd ROK Army Division 125th Regiment Heliport

Closest report is Gimhae International Airport, 9.8 nm (18.2 km) NW. Retrieved 2020/01/19 04:00 UTC (8 minutes ago):

RKPK 190400Z 31010KT CAVOK 08/M04 Q1018

Closest aviation forecast (TAF) to 53rd ROK Army Division 125th Regiment Heliport

Closest forecast is Gimhae International Airport, 9.8 nm (18.2 km) NW. Retrieved 2020-01-19 00:00 UTC (4 hours ago):

TAF RKPK 182300Z 1900/2006 33006KT CAVOK TX09/1906Z TNM03/1921Z BECMG 1902/1903 28008KT